Terminal Aerodrome Forecast
Issued by NWS

Home | Current Version | Previous Version | Text Only | Print | Product List | Glossary On
Versions: 1 2 3 4 5 6 7 8 9 10 11 12 13 14 15 16 17 18 19 20 21 22 23 24 25 26 27 28
000
FTUS45 KRIW 222300
TAFPNA
TAF
KPNA 222326Z 2300/2324 33011KT P6SM VCSH BKN080
     FM230200 30009KT P6SM -SHRA BKN050 OVC080
     FM231000 VRB06KT 5SM BR SCT015 BKN200
     FM231800 VRB06KT P6SM VCSH BKN040
     FM232000 28010KT P6SM -SHRA BKN040
      AMD LTD TO CLD VIS AND WIND=

USA.gov is the U.S. government's official web portal to all federal, state and local government web resources and services.